createdAt,value
2023-01-08T00:01:41.035Z,3.95
2023-01-08T00:04:08.393Z,4.15
2023-01-08T00:06:35.847Z,4.38
2023-01-08T00:09:03.767Z,4.63
2023-01-08T00:11:31.424Z,5.30
2023-01-08T00:13:58.680Z,4.38
2023-01-08T00:16:26.047Z,4.47
2023-01-08T00:18:53.340Z,4.18
2023-01-08T00:21:20.991Z,3.58
2023-01-08T00:23:48.438Z,4.05
2023-01-08T00:26:16.097Z,4.13
2023-01-08T00:28:43.441Z,3.95
2023-01-08T00:31:12.992Z,4.40
2023-01-08T00:33:41.393Z,3.40
2023-01-08T00:36:11.702Z,4.25
2023-01-08T00:38:39.137Z,4.10
2023-01-08T00:41:06.594Z,3.25
2023-01-08T00:43:34.108Z,3.65
2023-01-08T00:46:01.569Z,3.42
2023-01-08T00:48:29.154Z,3.58
2023-01-08T00:50:56.448Z,3.40
2023-01-08T00:53:24.156Z,3.38
2023-01-08T00:55:51.481Z,3.55
2023-01-08T00:58:18.899Z,3.63
2023-01-08T01:00:46.303Z,3.60
2023-01-08T01:03:13.618Z,3.75
2023-01-08T01:05:41.051Z,3.17
2023-01-08T01:08:08.644Z,3.33
2023-01-08T01:10:35.910Z,3.38
2023-01-08T01:13:03.246Z,3.58
2023-01-08T01:15:30.643Z,3.35
2023-01-08T01:17:57.997Z,3.22
2023-01-08T01:20:25.600Z,2.92
2023-01-08T01:22:52.933Z,3.10
2023-01-08T01:25:20.309Z,3.25
2023-01-08T01:27:47.745Z,3.90
2023-01-08T01:30:15.052Z,2.95
2023-01-08T01:32:42.312Z,3.70
2023-01-08T01:35:09.952Z,2.92
2023-01-08T01:37:37.627Z,3.00
2023-01-08T01:40:05.484Z,2.92
2023-01-08T01:42:41.843Z,3.05
2023-01-08T01:45:22.652Z,3.70
2023-01-08T01:48:07.039Z,3.17
2023-01-08T01:50:42.689Z,3.80
2023-01-08T01:53:19.425Z,3.10
2023-01-08T01:55:47.964Z,3.80
2023-01-08T01:58:26.374Z,3.67
2023-01-08T02:00:56.220Z,4.07
2023-01-08T02:03:30.446Z,3.65
2023-01-08T02:06:04.989Z,3.53
2023-01-08T02:08:49.081Z,3.20
2023-01-08T02:14:26.066Z,3.70
2023-01-08T02:17:11.011Z,3.33
2023-01-08T02:19:58.992Z,3.15
2023-01-08T02:22:45.034Z,3.30
2023-01-08T02:25:22.416Z,3.10
2023-01-08T02:27:54.140Z,3.40
2023-01-08T02:30:21.740Z,3.00
2023-01-08T02:32:49.041Z,3.25
2023-01-08T02:35:16.415Z,2.95
2023-01-08T02:37:43.924Z,3.42
2023-01-08T02:40:30.977Z,3.85
2023-01-08T02:43:12.771Z,3.20
2023-01-08T02:45:49.042Z,3.25
2023-01-08T02:48:31.506Z,3.17
2023-01-08T02:51:41.172Z,3.28
2023-01-08T02:54:13.426Z,3.28
2023-01-08T02:56:48.394Z,3.22
2023-01-08T02:59:16.956Z,4.05
2023-01-08T03:01:45.905Z,3.40
2023-01-08T03:04:25.100Z,3.92
2023-01-08T03:06:52.702Z,3.05
2023-01-08T03:09:20.987Z,3.40
2023-01-08T03:11:56.948Z,3.85
2023-01-08T03:14:36.791Z,3.70
2023-01-08T03:17:28.819Z,3.30
2023-01-08T03:20:01.856Z,3.97
2023-01-08T03:22:32.184Z,3.45
2023-01-08T03:24:59.990Z,3.83
2023-01-08T03:27:31.215Z,4.18
2023-01-08T03:30:00.087Z,3.80
2023-01-08T03:32:31.264Z,4.05
2023-01-08T03:35:00.781Z,3.22
2023-01-08T03:37:33.481Z,3.28
2023-01-08T03:40:13.010Z,3.75
2023-01-08T03:42:40.651Z,3.40
2023-01-08T03:45:08.548Z,3.42
2023-01-08T03:47:37.841Z,3.33
2023-01-08T03:50:10.047Z,4.28
2023-01-08T03:52:37.407Z,3.50
2023-01-08T03:55:05.082Z,3.25
2023-01-08T03:57:32.464Z,3.60
2023-01-08T03:59:59.764Z,3.03
2023-01-08T04:02:27.274Z,3.20
2023-01-08T04:04:54.660Z,3.92
2023-01-08T04:07:22.056Z,2.97
2023-01-08T04:09:49.346Z,3.63
2023-01-08T04:12:16.689Z,3.40
2023-01-08T04:14:43.923Z,3.72
2023-01-08T04:17:12.936Z,3.55
2023-01-08T04:19:40.307Z,3.08
2023-01-08T04:22:09.421Z,2.97
2023-01-08T04:24:36.782Z,2.78
2023-01-08T04:27:04.297Z,2.90
2023-01-08T04:29:31.634Z,2.70
2023-01-08T04:31:59.951Z,3.67
2023-01-08T04:34:27.300Z,3.08
2023-01-08T04:36:54.626Z,3.28
2023-01-08T04:39:21.925Z,3.70
2023-01-08T04:41:49.261Z,2.75
2023-01-08T04:44:16.500Z,3.03
2023-01-08T04:46:43.915Z,3.08
2023-01-08T04:49:12.265Z,3.70
2023-01-08T04:51:39.948Z,2.50
2023-01-08T04:54:07.417Z,2.80
2023-01-08T04:56:34.806Z,2.85
2023-01-08T04:59:02.133Z,2.90
2023-01-08T05:01:29.831Z,2.75
2023-01-08T05:03:59.984Z,2.85
2023-01-08T05:06:29.439Z,2.63
2023-01-08T05:08:57.332Z,2.58
2023-01-08T05:11:25.468Z,2.78
2023-01-08T05:13:53.817Z,3.00
2023-01-08T05:16:21.666Z,2.83
2023-01-08T05:18:49.284Z,3.10
2023-01-08T05:21:17.117Z,2.90
2023-01-08T05:23:47.990Z,2.70
2023-01-08T05:26:15.974Z,2.75
2023-01-08T05:28:43.700Z,2.90
2023-01-08T05:31:11.927Z,2.72
2023-01-08T05:33:39.675Z,3.20
2023-01-08T05:36:12.305Z,3.20
2023-01-08T05:38:40.176Z,3.00
2023-01-08T05:41:07.777Z,3.45
2023-01-08T05:43:35.697Z,2.90
2023-01-08T05:46:04.311Z,3.15
2023-01-08T05:48:34.624Z,2.78
2023-01-08T05:51:02.489Z,3.30
2023-01-08T05:53:32.261Z,3.08
2023-01-08T05:56:06.285Z,2.90
2023-01-08T05:58:35.215Z,3.97
2023-01-08T06:01:11.550Z,3.28
2023-01-08T06:03:39.599Z,3.65
2023-01-08T06:06:08.118Z,3.00
2023-01-08T06:08:35.741Z,3.60
2023-01-08T06:11:06.507Z,3.53
2023-01-08T06:13:34.864Z,3.10
2023-01-08T06:16:02.686Z,3.13
2023-01-08T06:18:31.434Z,2.88
2023-01-08T06:20:58.772Z,2.92
2023-01-08T06:23:26.510Z,3.35
2023-01-08T06:25:57.818Z,3.05
2023-01-08T06:28:25.605Z,3.15
2023-01-08T06:30:53.647Z,2.83
2023-01-08T06:33:21.571Z,3.63
2023-01-08T06:35:49.143Z,3.30
2023-01-08T06:38:19.435Z,3.22
2023-01-08T06:40:47.740Z,3.55
2023-01-08T06:43:15.325Z,2.95
2023-01-08T06:45:42.701Z,2.80
2023-01-08T06:48:10.063Z,2.85
2023-01-08T06:50:37.346Z,2.92
2023-01-08T06:53:05.034Z,3.22
2023-01-08T06:55:32.432Z,3.00
2023-01-08T06:57:59.883Z,3.10
2023-01-08T07:00:27.633Z,3.28
2023-01-08T07:02:55.721Z,3.13
2023-01-08T07:05:23.611Z,2.80
2023-01-08T07:07:51.290Z,3.33
2023-01-08T07:10:20.207Z,3.25
2023-01-08T07:12:48.553Z,2.92
2023-01-08T07:15:16.616Z,3.00
2023-01-08T07:17:44.107Z,3.08
2023-01-08T07:20:11.586Z,2.90
2023-01-08T07:22:38.927Z,3.30
2023-01-08T07:25:07.397Z,2.83
2023-01-08T07:27:34.802Z,3.03
2023-01-08T07:30:02.243Z,2.90
2023-01-08T07:32:29.693Z,3.08
2023-01-08T07:34:59.387Z,2.97
2023-01-08T07:37:27.151Z,2.95
2023-01-08T07:39:54.646Z,2.72
2023-01-08T07:42:22.102Z,2.40
2023-01-08T07:44:49.440Z,2.90
2023-01-08T07:47:16.887Z,3.13
2023-01-08T07:49:44.225Z,2.97
2023-01-08T07:52:11.546Z,2.80
2023-01-08T07:54:38.900Z,2.83
2023-01-08T07:57:06.224Z,3.00
2023-01-08T07:59:33.627Z,2.75
2023-01-08T08:02:01.155Z,3.20
2023-01-08T08:04:28.643Z,2.97
2023-01-08T08:06:56.033Z,2.95
2023-01-08T08:09:23.382Z,3.38
2023-01-08T08:11:50.724Z,3.10
2023-01-08T08:14:18.211Z,2.60
2023-01-08T08:16:45.672Z,3.35
2023-01-08T08:19:13.144Z,2.58
2023-01-08T08:21:40.546Z,2.95
2023-01-08T08:24:08.040Z,2.92
2023-01-08T08:26:35.427Z,2.78
2023-01-08T08:29:02.759Z,2.58
2023-01-08T08:31:30.322Z,2.45
2023-01-08T08:33:57.589Z,2.63
2023-01-08T08:36:31.170Z,3.10
2023-01-08T08:38:58.592Z,3.28
2023-01-08T08:41:26.090Z,2.60
2023-01-08T08:43:53.571Z,2.20
2023-01-08T08:46:21.024Z,2.67
2023-01-08T08:48:48.479Z,2.55
2023-01-08T08:51:15.852Z,2.67
2023-01-08T08:53:43.154Z,2.47
2023-01-08T08:56:10.484Z,2.25
2023-01-08T08:58:37.924Z,2.17
2023-01-08T09:01:05.695Z,2.47
2023-01-08T09:03:33.157Z,2.53
2023-01-08T09:06:00.731Z,2.33
2023-01-08T09:08:28.120Z,2.45
2023-01-08T09:10:55.510Z,2.53
2023-01-08T09:13:23.004Z,2.70
2023-01-08T09:15:50.378Z,2.58
2023-01-08T09:18:18.143Z,2.65
2023-01-08T09:20:45.552Z,2.65
2023-01-08T09:23:13.071Z,2.92
2023-01-08T09:25:40.385Z,2.70
2023-01-08T09:28:12.357Z,2.22
2023-01-08T09:30:40.866Z,2.45
2023-01-08T09:33:08.348Z,2.42
2023-01-08T09:35:35.949Z,2.40
2023-01-08T09:38:03.361Z,2.63
2023-01-08T09:40:41.214Z,2.50
2023-01-08T09:43:15.985Z,2.28
2023-01-08T09:45:45.966Z,2.13
2023-01-08T09:48:16.032Z,2.38
2023-01-08T09:50:44.151Z,2.08
2023-01-08T09:53:15.451Z,2.22
2023-01-08T09:55:43.848Z,2.60
2023-01-08T09:58:35.712Z,2.40
2023-01-08T10:01:04.585Z,2.20
2023-01-08T10:04:03.601Z,2.20
2023-01-08T10:06:31.604Z,2.40
2023-01-08T10:08:59.359Z,2.10
2023-01-08T10:11:32.555Z,2.20
2023-01-08T10:13:59.995Z,2.22
2023-01-08T10:16:36.878Z,2.35
2023-01-08T10:19:05.125Z,2.35
2023-01-08T10:21:39.585Z,2.20
2023-01-08T10:24:07.640Z,2.35
2023-01-08T10:26:37.516Z,2.30
2023-01-08T10:29:19.201Z,2.47
2023-01-08T10:31:52.849Z,2.70
2023-01-08T10:35:02.696Z,2.38
2023-01-08T10:37:39.416Z,2.90
2023-01-08T10:40:23.065Z,2.92
2023-01-08T10:42:51.797Z,2.50
2023-01-08T10:45:29.208Z,2.20
2023-01-08T10:48:01.706Z,2.33
2023-01-08T10:50:31.645Z,2.60
2023-01-08T10:53:01.751Z,2.60
2023-01-08T10:55:37.743Z,2.58
2023-01-08T10:58:15.672Z,2.42
2023-01-08T11:00:43.096Z,2.67
2023-01-08T11:03:36.811Z,2.38
2023-01-08T11:06:19.762Z,2.80
2023-01-08T11:08:55.737Z,2.95
2023-01-08T11:11:24.228Z,2.72
2023-01-08T11:14:17.196Z,2.70
2023-01-08T11:16:44.682Z,2.55
2023-01-08T11:19:28.175Z,2.53
2023-01-08T11:22:17.467Z,2.60
2023-01-08T11:24:46.210Z,2.50
2023-01-08T11:27:13.469Z,2.47
2023-01-08T11:30:15.027Z,2.65
2023-01-08T11:33:10.174Z,2.50
2023-01-08T11:35:42.679Z,2.63
2023-01-08T11:38:12.982Z,2.40
2023-01-08T11:40:49.705Z,2.80
2023-01-08T11:43:31.044Z,2.40
2023-01-08T11:45:58.364Z,2.70
2023-01-08T11:48:31.843Z,3.03
2023-01-08T11:51:18.373Z,3.42
2023-01-08T11:54:06.908Z,2.63
2023-01-08T11:56:51.140Z,2.30
2023-01-08T12:02:07.993Z,2.38
2023-01-08T12:04:52.604Z,2.40
2023-01-08T12:07:27.381Z,2.92
2023-01-08T12:10:21.013Z,2.70
2023-01-08T12:13:25.950Z,2.90
2023-01-08T12:18:36.144Z,3.05
2023-01-08T12:21:21.918Z,3.20
2023-01-08T12:24:14.028Z,3.25
2023-01-08T12:26:49.799Z,2.28
2023-01-08T12:29:40.317Z,2.75
2023-01-08T12:32:36.487Z,2.88
2023-01-08T12:35:37.196Z,3.00
2023-01-08T12:38:08.016Z,2.95
2023-01-08T12:40:53.377Z,2.90
2023-01-08T12:43:28.958Z,2.85
2023-01-08T12:45:59.701Z,3.05
2023-01-08T12:48:33.079Z,2.85
2023-01-08T12:51:34.044Z,2.55
2023-01-08T12:54:10.484Z,2.42
2023-01-08T12:56:50.226Z,3.03
2023-01-08T12:59:29.057Z,2.97
2023-01-08T13:02:33.433Z,3.15
2023-01-08T13:05:29.820Z,3.00
2023-01-08T13:08:00.572Z,2.45
2023-01-08T13:10:34.688Z,2.47
2023-01-08T13:13:03.686Z,2.55
2023-01-08T13:15:32.796Z,2.60
2023-01-08T13:18:29.687Z,2.67
2023-01-08T13:20:59.707Z,3.08
2023-01-08T13:23:35.392Z,3.08
2023-01-08T13:26:06.370Z,2.90
2023-01-08T13:28:44.057Z,2.90
2023-01-08T13:31:28.471Z,3.28
2023-01-08T13:33:56.448Z,3.50
2023-01-08T13:36:26.518Z,2.97
2023-01-08T13:39:12.230Z,3.00
2023-01-08T13:41:56.628Z,3.40
2023-01-08T13:44:41.357Z,3.40
2023-01-08T13:47:23.028Z,3.55
2023-01-08T13:49:53.988Z,5.32
2023-01-08T13:52:44.508Z,3.65
2023-01-08T13:55:34.024Z,3.17
2023-01-08T13:58:05.066Z,3.08
2023-01-08T14:00:41.580Z,3.00
2023-01-08T14:03:29.192Z,2.88
2023-01-08T14:06:24.127Z,3.40
2023-01-08T14:08:56.766Z,3.00
2023-01-08T14:11:29.357Z,3.78
2023-01-08T14:13:57.919Z,3.33
2023-01-08T14:16:25.859Z,3.75
2023-01-08T14:18:56.630Z,3.80
2023-01-08T14:21:24.264Z,3.60
2023-01-08T14:23:54.158Z,2.30
2023-01-08T14:26:30.872Z,2.75
2023-01-08T14:28:58.817Z,2.83
2023-01-08T14:31:27.806Z,2.30
2023-01-08T14:33:58.416Z,2.92
2023-01-08T14:36:26.904Z,2.90
2023-01-08T14:38:54.253Z,3.00
2023-01-08T14:41:56.397Z,3.17
2023-01-08T14:44:37.107Z,2.85
2023-01-08T14:47:15.192Z,3.13
2023-01-08T14:49:44.865Z,2.70
2023-01-08T14:52:15.294Z,2.17
2023-01-08T14:54:47.300Z,2.40
2023-01-08T14:57:15.099Z,2.33
2023-01-08T14:59:42.637Z,2.50
2023-01-08T15:02:22.277Z,2.40
2023-01-08T15:05:00.463Z,2.20
2023-01-08T15:07:27.952Z,2.15
2023-01-08T15:09:57.733Z,2.40
2023-01-08T15:12:33.375Z,2.67
2023-01-08T15:15:22.545Z,3.17
2023-01-08T15:17:50.273Z,3.33
2023-01-08T15:20:20.700Z,3.50
2023-01-08T15:22:48.556Z,3.50
2023-01-08T15:25:19.841Z,3.30
2023-01-08T15:27:57.069Z,2.90
2023-01-08T15:30:36.716Z,3.38
2023-01-08T15:33:30.271Z,2.22
2023-01-08T15:35:57.665Z,2.53
2023-01-08T15:38:25.055Z,3.47
2023-01-08T15:40:53.620Z,4.93
2023-01-08T15:43:21.885Z,3.35
2023-01-08T15:45:51.406Z,4.25
2023-01-08T15:48:18.811Z,4.07
2023-01-08T15:50:46.400Z,4.40
2023-01-08T15:53:18.589Z,4.82
2023-01-08T15:55:47.127Z,5.47
2023-01-08T15:58:15.735Z,4.45
2023-01-08T16:00:45.216Z,5.25
2023-01-08T16:03:14.514Z,4.45
2023-01-08T16:05:42.233Z,4.78
2023-01-08T16:08:11.389Z,3.92
2023-01-08T16:10:38.864Z,4.25
2023-01-08T16:13:06.206Z,3.85
2023-01-08T16:15:33.771Z,3.45
2023-01-08T16:18:01.161Z,3.75
2023-01-08T16:20:28.571Z,3.55
2023-01-08T16:22:57.292Z,3.30
2023-01-08T16:25:25.112Z,2.90
2023-01-08T16:27:52.809Z,2.85
2023-01-08T16:30:20.784Z,2.72
2023-01-08T16:32:52.684Z,2.70
2023-01-08T16:35:22.160Z,2.45
2023-01-08T16:37:49.534Z,2.78
2023-01-08T16:40:17.221Z,3.15
2023-01-08T16:42:44.540Z,3.08
2023-01-08T16:45:11.994Z,2.80
2023-01-08T16:47:39.652Z,2.92
2023-01-08T16:50:08.282Z,2.83
2023-01-08T16:52:38.567Z,2.53
2023-01-08T16:55:07.130Z,2.28
2023-01-08T16:57:35.816Z,2.33
2023-01-08T17:00:04.792Z,2.50
2023-01-08T17:02:32.195Z,2.67
2023-01-08T17:04:59.538Z,2.97
2023-01-08T17:07:26.820Z,2.13
2023-01-08T17:09:54.205Z,3.03
2023-01-08T17:12:24.243Z,3.10
2023-01-08T17:14:51.714Z,3.45
2023-01-08T17:17:19.090Z,3.70
2023-01-08T17:19:46.882Z,3.45
2023-01-08T17:22:14.319Z,2.90
2023-01-08T17:24:41.807Z,2.65
2023-01-08T17:27:09.157Z,3.22
2023-01-08T17:29:36.610Z,3.35
2023-01-08T17:32:03.992Z,3.97
2023-01-08T17:34:31.335Z,3.85
2023-01-08T17:36:58.710Z,2.50
2023-01-08T17:39:26.308Z,2.80
2023-01-08T17:42:11.818Z,2.28
2023-01-08T17:44:39.502Z,2.70
2023-01-08T17:47:07.170Z,2.80
2023-01-08T17:49:34.822Z,1.90
2023-01-08T17:52:11.684Z,3.42
2023-01-08T17:54:39.338Z,3.63
2023-01-08T17:57:06.687Z,3.15
2023-01-08T17:59:34.229Z,3.17
2023-01-08T18:02:01.741Z,3.05
2023-01-08T18:04:29.277Z,2.38
2023-01-08T18:06:56.757Z,1.85
2023-01-08T18:09:24.207Z,1.73
2023-01-08T18:11:51.535Z,1.40
2023-01-08T18:14:19.206Z,1.40
2023-01-08T18:16:46.767Z,1.20
2023-01-08T18:19:15.980Z,1.15
2023-01-08T18:21:44.529Z,1.35
2023-01-08T18:24:12.590Z,1.30
2023-01-08T18:26:40.584Z,1.40
2023-01-08T18:29:08.611Z,1.50
2023-01-08T18:31:36.072Z,1.48
2023-01-08T18:34:04.157Z,1.77
2023-01-08T18:36:31.901Z,1.55
2023-01-08T18:39:00.324Z,1.75
2023-01-08T18:41:46.040Z,2.00
2023-01-08T18:44:13.389Z,1.95
2023-01-08T18:46:40.885Z,2.05
2023-01-08T18:49:08.372Z,1.95
2023-01-08T18:51:35.779Z,1.75
2023-01-08T18:54:04.787Z,1.80
2023-01-08T18:56:34.698Z,1.90
2023-01-08T18:59:03.844Z,1.77
2023-01-08T19:01:31.682Z,1.75
2023-01-08T19:03:59.243Z,1.70
2023-01-08T19:06:26.751Z,1.60
2023-01-08T19:08:56.163Z,1.90
2023-01-08T19:11:25.138Z,1.83
2023-01-08T19:13:57.201Z,2.00
2023-01-08T19:16:24.873Z,2.50
2023-01-08T19:18:52.455Z,2.00
2023-01-08T19:21:20.003Z,2.45
2023-01-08T19:26:29.195Z,1.98
2023-01-08T19:28:56.471Z,2.15
2023-01-08T19:31:23.870Z,2.05
2023-01-08T19:33:52.969Z,2.33
2023-01-08T19:36:21.315Z,2.33
2023-01-08T19:38:48.670Z,2.30
2023-01-08T19:44:15.454Z,2.50
2023-01-08T19:46:42.853Z,3.25
2023-01-08T19:49:10.322Z,2.88
2023-01-08T19:51:37.649Z,3.22
2023-01-08T19:54:05.079Z,3.67
2023-01-08T19:56:32.513Z,3.53
2023-01-08T19:59:00.128Z,3.50
2023-01-08T20:01:28.810Z,3.10
2023-01-08T20:03:57.190Z,3.35
2023-01-08T20:09:09.229Z,2.90
2023-01-08T20:11:36.884Z,2.97
2023-01-08T20:14:05.648Z,3.38
2023-01-08T20:16:33.467Z,3.50
2023-01-08T20:19:04.495Z,3.17
2023-01-08T20:21:33.539Z,3.38
2023-01-08T20:24:06.186Z,2.97
2023-01-08T20:26:36.363Z,3.00
2023-01-08T20:29:04.408Z,3.22
2023-01-08T20:31:34.380Z,2.80
2023-01-08T20:34:04.561Z,3.35
2023-01-08T20:36:34.461Z,3.22
2023-01-08T20:39:04.804Z,3.53
2023-01-08T20:41:32.305Z,3.38
2023-01-08T20:44:01.519Z,3.50
2023-01-08T20:46:29.803Z,3.58
2023-01-08T20:49:04.929Z,3.05
2023-01-08T20:51:34.017Z,3.17
2023-01-08T20:54:03.396Z,2.90
2023-01-08T20:56:31.067Z,2.83
2023-01-08T20:58:58.828Z,3.17
2023-01-08T21:01:28.526Z,2.97
2023-01-08T21:03:57.609Z,3.13
2023-01-08T21:06:28.302Z,3.40
2023-01-08T21:08:58.662Z,3.22
2023-01-08T21:11:27.746Z,3.60
2023-01-08T21:13:55.889Z,4.35
2023-01-08T21:21:40.154Z,5.03
2023-01-08T21:24:09.418Z,4.10
2023-01-08T21:26:38.174Z,4.25
2023-01-08T21:29:07.341Z,3.45
2023-01-08T21:31:35.302Z,3.92
2023-01-08T21:34:04.207Z,3.80
2023-01-08T21:36:32.774Z,4.00
2023-01-08T21:39:01.520Z,3.42
2023-01-08T21:41:48.508Z,4.78
2023-01-08T21:44:37.721Z,3.35
2023-01-08T21:47:08.960Z,4.32
2023-01-08T21:49:36.747Z,4.10
2023-01-08T21:52:22.930Z,3.28
2023-01-08T21:54:51.836Z,3.08
2023-01-08T21:57:19.825Z,4.20
2023-01-08T21:59:50.389Z,3.60
2023-01-08T22:02:19.959Z,3.00
2023-01-08T22:04:47.328Z,3.50
2023-01-08T22:07:16.973Z,4.05
2023-01-08T22:09:44.386Z,3.92
2023-01-08T22:14:56.903Z,3.10
2023-01-08T22:17:26.071Z,2.72
2023-01-08T22:19:53.959Z,3.03
2023-01-08T22:22:21.570Z,3.20
2023-01-08T22:24:50.246Z,3.20
2023-01-08T22:27:17.765Z,2.72
2023-01-08T22:29:45.151Z,3.15
2023-01-08T22:32:12.558Z,3.17
2023-01-08T22:34:40.399Z,3.30
2023-01-08T22:37:08.083Z,2.10
2023-01-08T22:39:35.343Z,2.47
2023-01-08T22:42:02.848Z,2.38
2023-01-08T22:44:30.279Z,2.40
2023-01-08T22:47:00.154Z,2.67
2023-01-08T22:49:27.450Z,2.75
2023-01-08T22:51:55.931Z,2.60
2023-01-08T22:54:23.279Z,3.13
2023-01-08T22:59:31.691Z,3.13
2023-01-08T23:01:59.024Z,3.42
2023-01-08T23:04:26.553Z,3.67
2023-01-08T23:06:53.851Z,3.28
2023-01-08T23:12:02.605Z,2.97
2023-01-08T23:14:29.921Z,3.28
2023-01-08T23:16:57.266Z,3.58
2023-01-08T23:19:24.622Z,3.53
2023-01-08T23:21:51.956Z,3.60
2023-01-08T23:24:19.218Z,3.13
2023-01-08T23:26:46.583Z,3.50
2023-01-08T23:29:13.854Z,3.47
2023-01-08T23:31:43.352Z,3.65
2023-01-08T23:34:10.877Z,4.47
2023-01-08T23:36:38.352Z,3.55
2023-01-08T23:39:05.988Z,2.92
2023-01-08T23:41:35.053Z,4.82
2023-01-08T23:44:06.025Z,4.25
2023-01-08T23:46:33.804Z,3.92
2023-01-08T23:49:01.431Z,4.03
2023-01-08T23:51:28.762Z,3.80
2023-01-08T23:53:56.090Z,4.28
2023-01-08T23:56:23.429Z,4.57
2023-01-08T23:58:51.018Z,4.35
